Brierfield, Alabama
Current Conditions -  °F | °C
As of 1:53 PM on Wednesday 26 Nov 2014 (Local Time) from KEET Reporting Station
Clear Clear  
Wind Chill: 57°   Ceiling: Unl
Heat Index: 57°   Visibility: 10mi
Dew Point: 25°   Wind: 12mph
Humidity: 29%   Direction: 230°SW
Pressure: 30.11"   Gusts: NA
Location:  33.04°N, 86.91°W
Report Text: KEET 261953Z AUTO 23010KT 10SM CLR 14/M04 A3011 RMK AO2 SLP195 T01391039
Loading
Personal Weather Stations






























Interactive Weather Map New forecast layout! Learn more

10-Day Weather Forecast

Advertisements
Track Severe Weather on mobile